createdAt,value
2023-02-28T00:00:56.905Z,87.90
2023-02-28T00:11:42.634Z,88.20
2023-02-28T00:16:12.095Z,88.40
2023-02-28T00:20:36.718Z,88.50
2023-02-28T00:25:00.992Z,89.00
2023-02-28T00:35:48.099Z,88.80
2023-02-28T00:40:14.302Z,89.00
2023-02-28T00:44:39.869Z,89.50
2023-02-28T00:55:03.687Z,89.90
2023-02-28T00:59:28.597Z,90.10
2023-02-28T01:03:52.783Z,90.20
2023-02-28T01:08:18.609Z,90.30
2023-02-28T01:12:44.786Z,90.40
2023-02-28T01:17:09.500Z,90.50
2023-02-28T01:21:33.719Z,90.50
2023-02-28T01:25:57.941Z,90.70
2023-02-28T01:30:24.159Z,90.80
2023-02-28T01:34:49.214Z,90.70
2023-02-28T01:39:14.132Z,90.80
2023-02-28T01:44:05.730Z,91.00
2023-02-28T01:48:36.000Z,91.20
2023-02-28T01:53:02.929Z,91.20
2023-02-28T01:57:38.555Z,91.30
2023-02-28T02:02:03.916Z,91.20
2023-02-28T02:06:33.448Z,91.10
2023-02-28T02:10:59.958Z,91.20
2023-02-28T02:15:31.400Z,91.40
2023-02-28T02:20:22.935Z,91.40
2023-02-28T02:25:11.895Z,91.60
2023-02-28T02:30:02.380Z,91.80
2023-02-28T02:34:43.797Z,91.80
2023-02-28T02:39:16.078Z,91.70
2023-02-28T02:43:46.822Z,91.50
2023-02-28T02:48:16.248Z,91.40
2023-02-28T02:52:46.834Z,91.50
2023-02-28T02:57:15.290Z,91.70
2023-02-28T03:01:40.864Z,92.00
2023-02-28T03:06:07.004Z,92.10
2023-02-28T03:10:36.368Z,92.30
2023-02-28T03:15:10.152Z,92.60
2023-02-28T03:19:47.850Z,92.90
2023-02-28T03:24:17.666Z,93.20
2023-02-28T03:28:49.927Z,93.50
2023-02-28T03:33:17.910Z,93.70
2023-02-28T03:37:45.097Z,93.90
2023-02-28T03:42:13.158Z,94.10
2023-02-28T03:46:43.215Z,94.40
2023-02-28T03:51:11.317Z,94.80
2023-02-28T03:55:40.605Z,95.20
2023-02-28T04:00:10.328Z,95.60
2023-02-28T04:04:38.790Z,95.80
2023-02-28T04:09:02.877Z,95.90
2023-02-28T04:13:26.838Z,96.00
2023-02-28T04:17:50.896Z,96.00
2023-02-28T04:22:18.226Z,96.00
2023-02-28T04:26:44.551Z,96.20
2023-02-28T04:31:08.588Z,95.60
2023-02-28T04:35:32.713Z,95.30
2023-02-28T04:39:58.409Z,95.00
2023-02-28T04:44:22.424Z,94.70
2023-02-28T04:48:46.668Z,94.70
2023-02-28T04:53:10.829Z,94.80
2023-02-28T04:57:35.958Z,95.00
2023-02-28T05:01:59.990Z,95.00
2023-02-28T05:06:25.886Z,94.90
2023-02-28T05:10:49.800Z,94.80
2023-02-28T05:15:16.131Z,94.60
2023-02-28T05:19:40.343Z,94.50
2023-02-28T05:24:07.128Z,94.40
2023-02-28T05:28:32.195Z,94.30
2023-02-28T05:32:57.920Z,94.20
2023-02-28T05:37:22.814Z,93.90
2023-02-28T05:41:46.801Z,93.70
2023-02-28T05:46:12.970Z,93.70
2023-02-28T05:50:38.339Z,93.60
2023-02-28T05:55:02.727Z,93.50
2023-02-28T05:59:26.812Z,93.30
2023-02-28T06:03:50.801Z,93.20
2023-02-28T06:08:16.024Z,93.30
2023-02-28T06:12:40.524Z,93.40
2023-02-28T06:17:05.872Z,93.60
2023-02-28T06:21:30.709Z,94.10
2023-02-28T06:25:59.166Z,94.00
2023-02-28T06:30:26.287Z,94.20
2023-02-28T06:34:51.418Z,94.40
2023-02-28T06:39:15.320Z,94.60
2023-02-28T06:43:43.491Z,94.80
2023-02-28T06:48:07.969Z,94.90
2023-02-28T06:52:32.162Z,95.10
2023-02-28T06:56:56.389Z,95.20
2023-02-28T07:01:24.104Z,95.30
2023-02-28T07:05:48.274Z,95.30
2023-02-28T07:10:13.735Z,95.20
2023-02-28T07:14:39.568Z,95.20
2023-02-28T07:19:05.002Z,95.00
2023-02-28T07:23:29.950Z,94.80
2023-02-28T07:27:54.009Z,96.90
2023-02-28T07:32:18.043Z,96.30
2023-02-28T07:36:43.298Z,92.30
2023-02-28T07:41:07.540Z,84.30
2023-02-28T07:45:32.882Z,76.80
2023-02-28T07:49:56.736Z,75.00
2023-02-28T07:54:22.105Z,76.50
2023-02-28T07:58:46.140Z,72.40
2023-02-28T08:03:13.584Z,69.00
2023-02-28T08:07:38.007Z,69.10
2023-02-28T08:12:03.228Z,65.90
2023-02-28T08:16:27.172Z,60.60
2023-02-28T08:20:51.622Z,57.20
2023-02-28T08:25:15.687Z,54.10
2023-02-28T08:29:41.224Z,55.00
2023-02-28T08:34:08.198Z,50.40
2023-02-28T08:38:32.481Z,48.30
2023-02-28T08:42:56.485Z,47.30
2023-02-28T08:47:22.223Z,46.20
2023-02-28T08:51:46.631Z,45.00
2023-02-28T08:56:13.041Z,44.40
2023-02-28T09:00:37.681Z,43.70
2023-02-28T09:05:04.171Z,43.80
2023-02-28T09:09:28.254Z,43.10
2023-02-28T09:13:52.416Z,41.00
2023-02-28T09:18:17.123Z,40.80
2023-02-28T09:22:42.481Z,40.60
2023-02-28T09:27:07.146Z,40.60
2023-02-28T09:31:32.492Z,41.30
2023-02-28T09:36:01.618Z,42.50
2023-02-28T09:40:28.265Z,42.90
2023-02-28T09:44:53.596Z,42.50
2023-02-28T09:49:21.455Z,43.60
2023-02-28T09:53:50.456Z,44.10
2023-02-28T09:58:23.712Z,44.70
2023-02-28T10:03:29.382Z,44.00
2023-02-28T10:08:06.233Z,44.50
2023-02-28T10:12:34.442Z,44.10
2023-02-28T10:17:04.314Z,43.30
2023-02-28T10:21:36.350Z,44.20
2023-02-28T10:26:03.871Z,45.00
2023-02-28T10:30:30.011Z,44.10
2023-02-28T10:34:59.610Z,44.90
2023-02-28T10:39:48.517Z,44.80
2023-02-28T10:44:19.665Z,44.70
2023-02-28T10:48:46.770Z,42.60
2023-02-28T10:53:25.425Z,42.70
2023-02-28T10:57:49.564Z,43.10
2023-02-28T11:07:05.977Z,42.00
2023-02-28T11:11:44.189Z,41.40
2023-02-28T11:16:11.632Z,43.10
2023-02-28T11:20:36.873Z,42.90
2023-02-28T11:25:04.232Z,43.40
2023-02-28T11:29:31.997Z,43.90
2023-02-28T11:33:57.455Z,43.90
2023-02-28T11:38:21.606Z,44.30
2023-02-28T11:43:03.663Z,45.20
2023-02-28T11:47:36.414Z,45.40
2023-02-28T11:52:04.688Z,46.90
2023-02-28T11:56:35.172Z,47.90
2023-02-28T12:01:28.342Z,47.30
2023-02-28T12:06:00.449Z,47.80
2023-02-28T12:10:27.704Z,48.40
2023-02-28T12:15:36.473Z,48.70
2023-02-28T12:20:10.899Z,48.90
2023-02-28T12:24:59.568Z,48.90
2023-02-28T12:29:29.916Z,49.50
2023-02-28T12:33:57.522Z,49.80
2023-02-28T12:38:24.230Z,50.00
2023-02-28T12:42:54.051Z,50.10
2023-02-28T12:47:19.811Z,50.30
2023-02-28T12:51:44.179Z,50.90
2023-02-28T12:56:18.071Z,51.90
2023-02-28T13:00:53.134Z,52.30
2023-02-28T13:05:41.491Z,53.20
2023-02-28T13:10:08.646Z,54.10
2023-02-28T13:14:39.264Z,54.80
2023-02-28T13:19:14.556Z,54.60
2023-02-28T13:24:00.142Z,54.60
2023-02-28T13:29:09.506Z,54.60
2023-02-28T13:33:34.912Z,54.80
2023-02-28T13:38:25.496Z,54.90
2023-02-28T13:42:51.685Z,55.20
2023-02-28T13:47:30.308Z,55.40
2023-02-28T13:51:55.489Z,55.60
2023-02-28T13:56:36.137Z,55.70
2023-02-28T14:01:17.525Z,55.90
2023-02-28T14:05:42.188Z,56.20
2023-02-28T14:10:09.654Z,56.20
2023-02-28T14:15:00.496Z,56.20
2023-02-28T14:19:28.396Z,56.50
2023-02-28T14:24:18.918Z,56.70
2023-02-28T14:28:59.215Z,56.20
2023-02-28T14:33:34.211Z,56.80
2023-02-28T14:37:59.060Z,57.10
2023-02-28T14:42:34.954Z,57.60
2023-02-28T14:47:04.906Z,57.40
2023-02-28T14:51:30.444Z,57.40
2023-02-28T14:55:55.370Z,57.10
2023-02-28T15:00:24.912Z,57.20
2023-02-28T15:04:56.792Z,57.40
2023-02-28T15:09:22.843Z,57.40
2023-02-28T15:13:50.099Z,57.70
2023-02-28T15:18:24.894Z,57.60
2023-02-28T15:22:51.727Z,58.00
2023-02-28T15:27:23.844Z,58.20
2023-02-28T15:31:57.510Z,58.00
2023-02-28T15:36:24.332Z,57.90
2023-02-28T15:40:54.781Z,58.20
2023-02-28T15:45:38.569Z,58.20
2023-02-28T15:50:05.632Z,58.20
2023-02-28T15:54:32.824Z,59.00
2023-02-28T15:58:58.019Z,58.90
2023-02-28T16:03:39.570Z,59.00
2023-02-28T16:08:14.767Z,59.20
2023-02-28T16:12:41.314Z,59.70
2023-02-28T16:17:07.562Z,60.30
2023-02-28T16:21:34.085Z,60.90
2023-02-28T16:25:59.055Z,61.30
2023-02-28T16:30:25.434Z,61.70
2023-02-28T16:34:49.625Z,61.90
2023-02-28T16:39:15.365Z,62.20
2023-02-28T16:43:40.748Z,62.60
2023-02-28T16:48:05.053Z,63.00
2023-02-28T16:52:29.176Z,63.40
2023-02-28T16:56:54.523Z,63.80
2023-02-28T17:01:22.850Z,64.20
2023-02-28T17:05:47.264Z,64.60
2023-02-28T17:10:17.257Z,65.00
2023-02-28T17:14:42.845Z,65.40
2023-02-28T17:19:08.635Z,65.80
2023-02-28T17:23:32.680Z,66.20
2023-02-28T17:27:56.785Z,66.50
2023-02-28T17:32:18.270Z,66.90
2023-02-28T17:36:42.725Z,67.20
2023-02-28T17:41:07.007Z,67.50
2023-02-28T17:45:30.896Z,67.90
2023-02-28T17:49:59.022Z,68.20
2023-02-28T17:54:23.181Z,68.30
2023-02-28T17:58:47.132Z,68.50
2023-02-28T18:03:11.901Z,68.70
2023-02-28T18:07:38.849Z,69.10
2023-02-28T18:12:02.671Z,69.30
2023-02-28T18:16:27.481Z,70.50
2023-02-28T18:20:53.181Z,70.20
2023-02-28T18:25:17.062Z,70.50
2023-02-28T18:29:39.203Z,70.60
2023-02-28T18:33:57.730Z,71.10
2023-02-28T18:38:19.341Z,71.50
2023-02-28T18:42:39.274Z,71.60
2023-02-28T18:46:58.601Z,72.00
2023-02-28T18:51:18.638Z,72.30
2023-02-28T18:55:37.764Z,72.70
2023-02-28T18:59:56.657Z,72.90
2023-02-28T19:04:16.752Z,73.20
2023-02-28T19:08:34.524Z,73.20
2023-02-28T19:12:52.545Z,73.30
2023-02-28T19:17:12.010Z,73.50
2023-02-28T19:21:31.845Z,73.60
2023-02-28T19:25:49.972Z,73.50
2023-02-28T19:30:09.595Z,73.50
2023-02-28T19:34:30.291Z,73.50
2023-02-28T19:38:50.587Z,73.60
2023-02-28T19:43:08.487Z,73.90
2023-02-28T19:47:26.195Z,74.00
2023-02-28T19:51:48.161Z,74.30
2023-02-28T19:56:06.001Z,74.50
2023-02-28T20:00:23.659Z,74.70
2023-02-28T20:04:41.574Z,74.90
2023-02-28T20:09:01.108Z,75.30
2023-02-28T20:13:23.204Z,75.50
2023-02-28T20:17:46.814Z,75.80
2023-02-28T20:22:08.040Z,76.10
2023-02-28T20:26:29.109Z,76.50
2023-02-28T20:30:49.394Z,76.60
2023-02-28T20:35:11.733Z,76.90
2023-02-28T20:39:30.757Z,77.10
2023-02-28T20:43:54.760Z,77.30
2023-02-28T20:48:12.826Z,77.50
2023-02-28T20:52:31.028Z,77.90
2023-02-28T20:56:49.068Z,78.10
2023-02-28T21:01:12.819Z,78.30
2023-02-28T21:05:31.179Z,78.60
2023-02-28T21:09:49.242Z,78.80
2023-02-28T21:14:09.729Z,79.00
2023-02-28T21:18:30.390Z,79.40
2023-02-28T21:22:49.635Z,79.70
2023-02-28T21:27:09.009Z,80.10
2023-02-28T21:31:31.147Z,80.50
2023-02-28T21:35:52.884Z,80.90
2023-02-28T21:40:12.232Z,81.10
2023-02-28T21:44:34.571Z,81.40
2023-02-28T21:48:53.406Z,81.60
2023-02-28T21:53:12.906Z,81.70
2023-02-28T21:57:32.805Z,81.80
2023-02-28T22:01:52.022Z,81.90
2023-02-28T22:06:13.889Z,82.20
2023-02-28T22:10:35.540Z,82.40
2023-02-28T22:14:53.873Z,82.80
2023-02-28T22:19:12.350Z,83.20
2023-02-28T22:23:30.421Z,83.40
2023-02-28T22:27:50.058Z,83.70
2023-02-28T22:32:11.478Z,84.00
2023-02-28T22:36:31.373Z,84.20
2023-02-28T22:40:51.784Z,84.60
2023-02-28T22:45:12.674Z,84.90
2023-02-28T22:49:30.590Z,85.10
2023-02-28T22:53:49.983Z,85.50
2023-02-28T22:58:09.910Z,85.90
2023-02-28T23:02:30.114Z,85.90
2023-02-28T23:06:49.401Z,86.20
2023-02-28T23:11:07.039Z,86.30
2023-02-28T23:15:25.552Z,86.80
2023-02-28T23:19:44.600Z,87.10
2023-02-28T23:24:10.701Z,87.30
2023-02-28T23:28:28.594Z,87.50
2023-02-28T23:32:46.514Z,87.80
2023-02-28T23:37:05.942Z,87.90
2023-02-28T23:41:32.209Z,88.10
2023-02-28T23:45:56.756Z,88.50
2023-02-28T23:50:14.337Z,88.90
2023-02-28T23:54:33.855Z,89.20
2023-02-28T23:58:55.837Z,89.60
